sensor_id;sensor_type;location;lat;lon;timestamp;temperature;humidity
24035;DHT22;12242;50.952;4.678;2024-02-16T00:00:41;13.90;99.90
24035;DHT22;12242;50.952;4.678;2024-02-16T00:03:16;13.90;99.90
24035;DHT22;12242;50.952;4.678;2024-02-16T00:05:43;13.90;99.90
24035;DHT22;12242;50.952;4.678;2024-02-16T00:08:11;13.90;99.90
24035;DHT22;12242;50.952;4.678;2024-02-16T00:10:42;13.90;99.90
24035;DHT22;12242;50.952;4.678;2024-02-16T00:13:10;13.80;99.90
24035;DHT22;12242;50.952;4.678;2024-02-16T00:15:39;13.70;99.90
24035;DHT22;12242;50.952;4.678;2024-02-16T00:18:07;13.50;99.90
24035;DHT22;12242;50.952;4.678;2024-02-16T00:20:35;13.50;99.90
24035;DHT22;12242;50.952;4.678;2024-02-16T00:23:05;13.50;99.90
24035;DHT22;12242;50.952;4.678;2024-02-16T00:25:34;13.40;99.90
24035;DHT22;12242;50.952;4.678;2024-02-16T00:28:01;13.30;99.90
24035;DHT22;12242;50.952;4.678;2024-02-16T00:30:30;13.40;99.90
24035;DHT22;12242;50.952;4.678;2024-02-16T00:32:58;13.30;99.90
24035;DHT22;12242;50.952;4.678;2024-02-16T00:35:28;13.40;99.90
24035;DHT22;12242;50.952;4.678;2024-02-16T00:37:57;13.50;99.90
24035;DHT22;12242;50.952;4.678;2024-02-16T00:40:24;13.40;99.90
24035;DHT22;12242;50.952;4.678;2024-02-16T00:43:01;13.30;99.90
24035;DHT22;12242;50.952;4.678;2024-02-16T00:45:31;13.30;99.90
24035;DHT22;12242;50.952;4.678;2024-02-16T00:47:58;13.20;99.90
24035;DHT22;12242;50.952;4.678;2024-02-16T00:50:26;13.30;99.90
24035;DHT22;12242;50.952;4.678;2024-02-16T00:52:55;13.30;99.90
24035;DHT22;12242;50.952;4.678;2024-02-16T00:55:27;13.30;99.90
24035;DHT22;12242;50.952;4.678;2024-02-16T00:57:57;13.30;99.90
24035;DHT22;12242;50.952;4.678;2024-02-16T01:00:24;13.30;99.90
24035;DHT22;12242;50.952;4.678;2024-02-16T01:02:54;13.40;99.90
24035;DHT22;12242;50.952;4.678;2024-02-16T01:05:27;13.50;99.90
24035;DHT22;12242;50.952;4.678;2024-02-16T01:07:54;13.50;99.90
24035;DHT22;12242;50.952;4.678;2024-02-16T01:10:22;13.30;99.90
24035;DHT22;12242;50.952;4.678;2024-02-16T01:12:50;13.30;99.90
24035;DHT22;12242;50.952;4.678;2024-02-16T01:15:28;13.40;99.90
24035;DHT22;12242;50.952;4.678;2024-02-16T01:17:58;13.40;99.90
24035;DHT22;12242;50.952;4.678;2024-02-16T01:20:30;13.30;99.90
24035;DHT22;12242;50.952;4.678;2024-02-16T01:22:58;13.30;99.90
24035;DHT22;12242;50.952;4.678;2024-02-16T01:25:28;13.10;99.90
24035;DHT22;12242;50.952;4.678;2024-02-16T01:27:58;13.10;99.90
24035;DHT22;12242;50.952;4.678;2024-02-16T01:30:26;13.20;99.90
24035;DHT22;12242;50.952;4.678;2024-02-16T01:32:53;13.20;99.90
24035;DHT22;12242;50.952;4.678;2024-02-16T01:35:21;13.20;99.90
24035;DHT22;12242;50.952;4.678;2024-02-16T01:38:00;13.30;99.90
24035;DHT22;12242;50.952;4.678;2024-02-16T01:40:33;13.30;99.90
24035;DHT22;12242;50.952;4.678;2024-02-16T01:43:03;13.30;99.90
24035;DHT22;12242;50.952;4.678;2024-02-16T01:45:38;13.30;99.90
24035;DHT22;12242;50.952;4.678;2024-02-16T01:48:06;13.40;99.90
24035;DHT22;12242;50.952;4.678;2024-02-16T01:50:34;13.30;99.90
24035;DHT22;12242;50.952;4.678;2024-02-16T01:53:04;13.50;99.90
24035;DHT22;12242;50.952;4.678;2024-02-16T01:55:38;13.50;99.90
24035;DHT22;12242;50.952;4.678;2024-02-16T01:58:08;13.50;99.90
24035;DHT22;12242;50.952;4.678;2024-02-16T02:00:38;13.40;99.90
24035;DHT22;12242;50.952;4.678;2024-02-16T02:03:08;13.40;99.90
24035;DHT22;12242;50.952;4.678;2024-02-16T02:05:46;13.40;99.90
24035;DHT22;12242;50.952;4.678;2024-02-16T02:08:16;13.40;99.90
24035;DHT22;12242;50.952;4.678;2024-02-16T02:10:44;13.50;99.90
24035;DHT22;12242;50.952;4.678;2024-02-16T02:13:13;13.50;99.90
24035;DHT22;12242;50.952;4.678;2024-02-16T02:15:47;13.40;99.90
24035;DHT22;12242;50.952;4.678;2024-02-16T02:18:14;13.40;99.90
24035;DHT22;12242;50.952;4.678;2024-02-16T02:20:44;13.30;99.90
24035;DHT22;12242;50.952;4.678;2024-02-16T02:23:14;13.20;99.90
24035;DHT22;12242;50.952;4.678;2024-02-16T02:25:45;13.30;99.90
24035;DHT22;12242;50.952;4.678;2024-02-16T02:28:12;13.30;99.90
24035;DHT22;12242;50.952;4.678;2024-02-16T02:30:40;13.40;99.90
24035;DHT22;12242;50.952;4.678;2024-02-16T02:33:10;13.50;99.90
24035;DHT22;12242;50.952;4.678;2024-02-16T02:35:42;13.60;99.90
24035;DHT22;12242;50.952;4.678;2024-02-16T02:38:13;13.60;99.90
24035;DHT22;12242;50.952;4.678;2024-02-16T02:40:40;13.60;99.90
24035;DHT22;12242;50.952;4.678;2024-02-16T02:43:13;13.40;99.90
24035;DHT22;12242;50.952;4.678;2024-02-16T02:45:41;13.40;99.90
24035;DHT22;12242;50.952;4.678;2024-02-16T02:48:08;13.40;99.90
24035;DHT22;12242;50.952;4.678;2024-02-16T02:50:39;13.50;99.90
24035;DHT22;12242;50.952;4.678;2024-02-16T02:53:06;13.70;99.90
24035;DHT22;12242;50.952;4.678;2024-02-16T02:55:38;13.80;99.90
24035;DHT22;12242;50.952;4.678;2024-02-16T02:58:10;13.60;99.90
24035;DHT22;12242;50.952;4.678;2024-02-16T03:00:38;13.60;99.90
24035;DHT22;12242;50.952;4.678;2024-02-16T03:03:06;13.50;99.90
24035;DHT22;12242;50.952;4.678;2024-02-16T03:05:36;13.50;99.90
24035;DHT22;12242;50.952;4.678;2024-02-16T03:08:05;13.40;99.90
24035;DHT22;12242;50.952;4.678;2024-02-16T03:10:32;13.40;99.90
24035;DHT22;12242;50.952;4.678;2024-02-16T03:13:07;13.30;99.90
24035;DHT22;12242;50.952;4.678;2024-02-16T03:15:39;13.20;99.90
24035;DHT22;12242;50.952;4.678;2024-02-16T03:18:12;13.20;99.90
24035;DHT22;12242;50.952;4.678;2024-02-16T03:20:44;13.30;99.90
24035;DHT22;12242;50.952;4.678;2024-02-16T03:23:16;13.30;99.90
24035;DHT22;12242;50.952;4.678;2024-02-16T03:25:51;13.40;99.90
24035;DHT22;12242;50.952;4.678;2024-02-16T03:28:24;13.40;99.90
24035;DHT22;12242;50.952;4.678;2024-02-16T03:30:52;13.40;99.90
24035;DHT22;12242;50.952;4.678;2024-02-16T03:33:20;13.50;99.90
24035;DHT22;12242;50.952;4.678;2024-02-16T03:35:50;13.50;99.90
24035;DHT22;12242;50.952;4.678;2024-02-16T03:38:24;13.60;99.90
24035;DHT22;12242;50.952;4.678;2024-02-16T03:40:56;13.60;99.90
24035;DHT22;12242;50.952;4.678;2024-02-16T03:43:24;13.50;99.90
24035;DHT22;12242;50.952;4.678;2024-02-16T03:45:51;13.50;99.90
24035;DHT22;12242;50.952;4.678;2024-02-16T03:48:21;13.70;99.90
24035;DHT22;12242;50.952;4.678;2024-02-16T03:50:54;13.80;99.90
24035;DHT22;12242;50.952;4.678;2024-02-16T03:53:23;13.70;99.90
24035;DHT22;12242;50.952;4.678;2024-02-16T03:55:51;13.70;99.90
24035;DHT22;12242;50.952;4.678;2024-02-16T03:58:22;13.70;99.90
24035;DHT22;12242;50.952;4.678;2024-02-16T04:00:50;13.80;99.90
24035;DHT22;12242;50.952;4.678;2024-02-16T04:03:17;13.70;99.90
24035;DHT22;12242;50.952;4.678;2024-02-16T04:05:45;13.70;99.90
24035;DHT22;12242;50.952;4.678;2024-02-16T04:08:12;13.60;99.90
24035;DHT22;12242;50.952;4.678;2024-02-16T04:10:40;13.70;99.90
24035;DHT22;12242;50.952;4.678;2024-02-16T04:13:08;13.70;99.90
24035;DHT22;12242;50.952;4.678;2024-02-16T04:15:40;13.70;99.90
24035;DHT22;12242;50.952;4.678;2024-02-16T04:18:10;13.70;99.90
24035;DHT22;12242;50.952;4.678;2024-02-16T04:20:39;13.60;99.90
24035;DHT22;12242;50.952;4.678;2024-02-16T04:23:11;13.70;99.90
24035;DHT22;12242;50.952;4.678;2024-02-16T04:25:41;13.90;99.90
24035;DHT22;12242;50.952;4.678;2024-02-16T04:28:14;13.80;99.90
24035;DHT22;12242;50.952;4.678;2024-02-16T04:30:48;13.90;99.90
24035;DHT22;12242;50.952;4.678;2024-02-16T04:33:24;14.00;99.90
24035;DHT22;12242;50.952;4.678;2024-02-16T04:35:54;14.00;99.90
24035;DHT22;12242;50.952;4.678;2024-02-16T04:38:31;14.00;99.90
24035;DHT22;12242;50.952;4.678;2024-02-16T04:41:00;14.00;99.90
24035;DHT22;12242;50.952;4.678;2024-02-16T04:43:27;13.90;99.90
24035;DHT22;12242;50.952;4.678;2024-02-16T04:45:54;14.00;99.90
24035;DHT22;12242;50.952;4.678;2024-02-16T04:48:24;14.10;99.90
24035;DHT22;12242;50.952;4.678;2024-02-16T04:50:52;14.20;99.90
24035;DHT22;12242;50.952;4.678;2024-02-16T04:53:19;14.10;99.90
24035;DHT22;12242;50.952;4.678;2024-02-16T04:55:50;14.00;99.90
24035;DHT22;12242;50.952;4.678;2024-02-16T04:58:17;14.00;99.90
24035;DHT22;12242;50.952;4.678;2024-02-16T05:00:48;14.10;99.90
24035;DHT22;12242;50.952;4.678;2024-02-16T05:03:18;14.00;99.90
24035;DHT22;12242;50.952;4.678;2024-02-16T05:05:48;14.10;99.90
24035;DHT22;12242;50.952;4.678;2024-02-16T05:08:16;14.00;99.90
24035;DHT22;12242;50.952;4.678;2024-02-16T05:10:43;14.00;99.90
24035;DHT22;12242;50.952;4.678;2024-02-16T05:13:16;14.00;99.90
24035;DHT22;12242;50.952;4.678;2024-02-16T05:15:44;14.10;99.90
24035;DHT22;12242;50.952;4.678;2024-02-16T05:18:16;14.20;99.90
24035;DHT22;12242;50.952;4.678;2024-02-16T05:20:45;14.00;99.90
24035;DHT22;12242;50.952;4.678;2024-02-16T05:23:15;14.00;99.90
24035;DHT22;12242;50.952;4.678;2024-02-16T05:25:46;13.90;99.90
24035;DHT22;12242;50.952;4.678;2024-02-16T05:28:14;13.90;99.90
24035;DHT22;12242;50.952;4.678;2024-02-16T05:30:46;13.90;99.90
24035;DHT22;12242;50.952;4.678;2024-02-16T05:33:14;13.90;99.90
24035;DHT22;12242;50.952;4.678;2024-02-16T05:35:41;13.90;99.90
24035;DHT22;12242;50.952;4.678;2024-02-16T05:38:11;14.00;99.90
24035;DHT22;12242;50.952;4.678;2024-02-16T05:40:50;14.00;99.90
24035;DHT22;12242;50.952;4.678;2024-02-16T05:43:24;14.00;99.90
24035;DHT22;12242;50.952;4.678;2024-02-16T05:45:53;14.10;99.90
24035;DHT22;12242;50.952;4.678;2024-02-16T05:48:20;14.20;99.90
24035;DHT22;12242;50.952;4.678;2024-02-16T05:50:49;14.30;99.90
24035;DHT22;12242;50.952;4.678;2024-02-16T05:53:17;14.20;99.90
24035;DHT22;12242;50.952;4.678;2024-02-16T05:55:51;14.30;99.90
24035;DHT22;12242;50.952;4.678;2024-02-16T05:58:25;14.20;99.90
24035;DHT22;12242;50.952;4.678;2024-02-16T06:00:53;14.40;99.90
24035;DHT22;12242;50.952;4.678;2024-02-16T06:03:22;14.30;99.90
24035;DHT22;12242;50.952;4.678;2024-02-16T06:05:49;14.20;99.90
24035;DHT22;12242;50.952;4.678;2024-02-16T06:08:17;14.20;99.90
24035;DHT22;12242;50.952;4.678;2024-02-16T06:10:46;14.20;99.90
24035;DHT22;12242;50.952;4.678;2024-02-16T06:13:23;14.20;99.90
24035;DHT22;12242;50.952;4.678;2024-02-16T06:15:52;14.10;99.90
24035;DHT22;12242;50.952;4.678;2024-02-16T06:18:19;14.10;99.90
24035;DHT22;12242;50.952;4.678;2024-02-16T06:20:50;14.20;99.90
24035;DHT22;12242;50.952;4.678;2024-02-16T06:23:17;14.20;99.90
24035;DHT22;12242;50.952;4.678;2024-02-16T06:25:45;14.30;99.90
24035;DHT22;12242;50.952;4.678;2024-02-16T06:28:12;14.40;99.90
24035;DHT22;12242;50.952;4.678;2024-02-16T06:30:40;14.40;99.90
24035;DHT22;12242;50.952;4.678;2024-02-16T06:33:07;14.40;99.90
24035;DHT22;12242;50.952;4.678;2024-02-16T06:35:39;14.50;99.90
24035;DHT22;12242;50.952;4.678;2024-02-16T06:38:12;14.40;99.90
24035;DHT22;12242;50.952;4.678;2024-02-16T06:40:43;14.50;99.90
24035;DHT22;12242;50.952;4.678;2024-02-16T06:43:10;14.50;99.90
24035;DHT22;12242;50.952;4.678;2024-02-16T06:45:40;14.60;99.90
24035;DHT22;12242;50.952;4.678;2024-02-16T06:48:07;14.70;99.90
24035;DHT22;12242;50.952;4.678;2024-02-16T06:50:35;14.80;99.90
24035;DHT22;12242;50.952;4.678;2024-02-16T06:53:03;14.60;99.90
24035;DHT22;12242;50.952;4.678;2024-02-16T06:55:33;14.50;99.90
24035;DHT22;12242;50.952;4.678;2024-02-16T06:58:01;14.60;99.90
24035;DHT22;12242;50.952;4.678;2024-02-16T07:00:30;14.40;99.90
24035;DHT22;12242;50.952;4.678;2024-02-16T07:03:02;14.40;99.90
24035;DHT22;12242;50.952;4.678;2024-02-16T07:05:29;14.50;99.90
24035;DHT22;12242;50.952;4.678;2024-02-16T07:08:06;14.60;99.90
24035;DHT22;12242;50.952;4.678;2024-02-16T07:10:34;14.60;99.90
24035;DHT22;12242;50.952;4.678;2024-02-16T07:13:02;14.50;99.90
24035;DHT22;12242;50.952;4.678;2024-02-16T07:15:30;14.40;99.90
24035;DHT22;12242;50.952;4.678;2024-02-16T07:18:00;14.50;99.90
24035;DHT22;12242;50.952;4.678;2024-02-16T07:20:31;14.60;99.90
24035;DHT22;12242;50.952;4.678;2024-02-16T07:23:01;14.60;99.90
24035;DHT22;12242;50.952;4.678;2024-02-16T07:25:29;14.80;99.90
24035;DHT22;12242;50.952;4.678;2024-02-16T07:28:00;14.80;99.90
24035;DHT22;12242;50.952;4.678;2024-02-16T07:30:36;14.80;99.90
24035;DHT22;12242;50.952;4.678;2024-02-16T07:33:12;14.70;99.90
24035;DHT22;12242;50.952;4.678;2024-02-16T07:35:40;14.70;99.90
24035;DHT22;12242;50.952;4.678;2024-02-16T07:38:10;14.80;99.90
24035;DHT22;12242;50.952;4.678;2024-02-16T07:40:40;14.90;99.90
24035;DHT22;12242;50.952;4.678;2024-02-16T07:43:07;14.90;99.90
24035;DHT22;12242;50.952;4.678;2024-02-16T07:45:35;14.90;99.90
24035;DHT22;12242;50.952;4.678;2024-02-16T07:48:04;14.90;99.90
24035;DHT22;12242;50.952;4.678;2024-02-16T07:50:33;15.00;99.90
24035;DHT22;12242;50.952;4.678;2024-02-16T07:53:01;15.00;99.90
24035;DHT22;12242;50.952;4.678;2024-02-16T07:55:28;15.00;99.90
24035;DHT22;12242;50.952;4.678;2024-02-16T07:57:58;15.00;99.90
24035;DHT22;12242;50.952;4.678;2024-02-16T08:00:34;14.90;99.90
24035;DHT22;12242;50.952;4.678;2024-02-16T08:03:02;15.00;99.90
24035;DHT22;12242;50.952;4.678;2024-02-16T08:05:32;15.00;99.90
24035;DHT22;12242;50.952;4.678;2024-02-16T08:08:00;15.00;99.90
24035;DHT22;12242;50.952;4.678;2024-02-16T08:10:30;15.20;99.90
24035;DHT22;12242;50.952;4.678;2024-02-16T08:13:00;15.20;99.90
24035;DHT22;12242;50.952;4.678;2024-02-16T08:15:30;15.20;99.90
24035;DHT22;12242;50.952;4.678;2024-02-16T08:17:58;15.20;99.90
24035;DHT22;12242;50.952;4.678;2024-02-16T08:20:30;15.20;99.90
24035;DHT22;12242;50.952;4.678;2024-02-16T08:22:57;15.30;99.90
24035;DHT22;12242;50.952;4.678;2024-02-16T08:25:28;15.40;99.90
24035;DHT22;12242;50.952;4.678;2024-02-16T08:27:57;15.30;99.90
24035;DHT22;12242;50.952;4.678;2024-02-16T08:30:25;15.30;99.90
24035;DHT22;12242;50.952;4.678;2024-02-16T08:32:55;15.30;99.90
24035;DHT22;12242;50.952;4.678;2024-02-16T08:35:22;15.30;99.90
24035;DHT22;12242;50.952;4.678;2024-02-16T08:37:50;15.40;99.90
24035;DHT22;12242;50.952;4.678;2024-02-16T08:40:25;15.40;99.90
24035;DHT22;12242;50.952;4.678;2024-02-16T08:42:55;15.40;99.90
24035;DHT22;12242;50.952;4.678;2024-02-16T08:45:28;15.50;99.90
24035;DHT22;12242;50.952;4.678;2024-02-16T08:47:56;15.30;99.90
24035;DHT22;12242;50.952;4.678;2024-02-16T08:50:25;15.30;99.90
24035;DHT22;12242;50.952;4.678;2024-02-16T08:52:57;15.30;99.90
24035;DHT22;12242;50.952;4.678;2024-02-16T08:55:28;15.30;99.90
24035;DHT22;12242;50.952;4.678;2024-02-16T08:57:58;15.30;99.90
24035;DHT22;12242;50.952;4.678;2024-02-16T09:00:32;15.30;99.90
24035;DHT22;12242;50.952;4.678;2024-02-16T09:03:03;15.40;99.90
24035;DHT22;12242;50.952;4.678;2024-02-16T09:05:30;15.40;99.90
24035;DHT22;12242;50.952;4.678;2024-02-16T09:08:23;15.50;99.90
24035;DHT22;12242;50.952;4.678;2024-02-16T09:16:05;15.40;99.90
24035;DHT22;12242;50.952;4.678;2024-02-16T09:19:19;15.30;99.90
24035;DHT22;12242;50.952;4.678;2024-02-16T09:22:01;15.20;99.90
24035;DHT22;12242;50.952;4.678;2024-02-16T09:24:37;15.30;99.90
24035;DHT22;12242;50.952;4.678;2024-02-16T09:27:05;15.40;99.90
24035;DHT22;12242;50.952;4.678;2024-02-16T09:29:32;15.30;99.90
24035;DHT22;12242;50.952;4.678;2024-02-16T09:32:03;15.30;99.90
24035;DHT22;12242;50.952;4.678;2024-02-16T09:34:32;15.30;99.90
24035;DHT22;12242;50.952;4.678;2024-02-16T09:37:00;15.30;99.90
24035;DHT22;12242;50.952;4.678;2024-02-16T09:39:28;15.30;99.90
24035;DHT22;12242;50.952;4.678;2024-02-16T09:41:56;15.20;99.90
24035;DHT22;12242;50.952;4.678;2024-02-16T09:44:23;15.10;99.90
24035;DHT22;12242;50.952;4.678;2024-02-16T09:46:54;15.20;99.90
24035;DHT22;12242;50.952;4.678;2024-02-16T09:49:22;15.20;99.90
24035;DHT22;12242;50.952;4.678;2024-02-16T09:52:02;15.10;99.90
24035;DHT22;12242;50.952;4.678;2024-02-16T09:54:32;15.00;99.90
24035;DHT22;12242;50.952;4.678;2024-02-16T09:57:04;14.80;99.90
24035;DHT22;12242;50.952;4.678;2024-02-16T09:59:32;14.80;99.90
24035;DHT22;12242;50.952;4.678;2024-02-16T10:02:04;14.90;99.90
24035;DHT22;12242;50.952;4.678;2024-02-16T10:04:32;14.90;99.90
24035;DHT22;12242;50.952;4.678;2024-02-16T10:07:03;15.00;99.90
24035;DHT22;12242;50.952;4.678;2024-02-16T10:09:39;15.00;99.90
24035;DHT22;12242;50.952;4.678;2024-02-16T10:12:09;15.10;99.90
24035;DHT22;12242;50.952;4.678;2024-02-16T10:14:42;15.10;99.90
24035;DHT22;12242;50.952;4.678;2024-02-16T10:17:16;15.10;99.90
24035;DHT22;12242;50.952;4.678;2024-02-16T10:19:44;15.20;99.90
24035;DHT22;12242;50.952;4.678;2024-02-16T10:22:15;15.30;99.90
24035;DHT22;12242;50.952;4.678;2024-02-16T10:24:43;15.30;99.90
24035;DHT22;12242;50.952;4.678;2024-02-16T10:27:15;15.40;99.90
24035;DHT22;12242;50.952;4.678;2024-02-16T10:29:49;15.40;99.90
24035;DHT22;12242;50.952;4.678;2024-02-16T10:32:22;15.40;99.90
24035;DHT22;12242;50.952;4.678;2024-02-16T10:34:54;15.60;99.90
24035;DHT22;12242;50.952;4.678;2024-02-16T10:37:23;15.60;99.90
24035;DHT22;12242;50.952;4.678;2024-02-16T10:39:52;15.80;99.90
24035;DHT22;12242;50.952;4.678;2024-02-16T10:42:29;15.90;99.90
24035;DHT22;12242;50.952;4.678;2024-02-16T10:44:58;16.00;99.90
24035;DHT22;12242;50.952;4.678;2024-02-16T10:47:27;16.10;99.90
24035;DHT22;12242;50.952;4.678;2024-02-16T10:49:57;16.00;99.90
24035;DHT22;12242;50.952;4.678;2024-02-16T10:52:26;15.80;99.90
24035;DHT22;12242;50.952;4.678;2024-02-16T10:54:53;15.60;99.90
24035;DHT22;12242;50.952;4.678;2024-02-16T10:57:24;15.50;99.90
24035;DHT22;12242;50.952;4.678;2024-02-16T10:59:53;15.30;99.90
24035;DHT22;12242;50.952;4.678;2024-02-16T11:02:23;15.30;99.90
24035;DHT22;12242;50.952;4.678;2024-02-16T11:04:55;15.20;99.90
24035;DHT22;12242;50.952;4.678;2024-02-16T11:07:25;15.20;99.90
24035;DHT22;12242;50.952;4.678;2024-02-16T11:09:59;15.10;99.90
24035;DHT22;12242;50.952;4.678;2024-02-16T11:12:33;15.10;99.90
24035;DHT22;12242;50.952;4.678;2024-02-16T11:15:04;15.10;99.90
24035;DHT22;12242;50.952;4.678;2024-02-16T11:17:40;15.10;99.90
24035;DHT22;12242;50.952;4.678;2024-02-16T11:20:08;15.10;99.90
24035;DHT22;12242;50.952;4.678;2024-02-16T11:22:37;15.10;99.90
24035;DHT22;12242;50.952;4.678;2024-02-16T11:25:06;15.00;99.90
24035;DHT22;12242;50.952;4.678;2024-02-16T11:27:37;15.10;99.90
24035;DHT22;12242;50.952;4.678;2024-02-16T11:30:16;15.10;99.90
24035;DHT22;12242;50.952;4.678;2024-02-16T11:32:48;15.20;99.90
24035;DHT22;12242;50.952;4.678;2024-02-16T11:35:51;15.20;99.90
24035;DHT22;12242;50.952;4.678;2024-02-16T11:38:36;15.20;99.90
24035;DHT22;12242;50.952;4.678;2024-02-16T11:41:06;15.00;99.90
24035;DHT22;12242;50.952;4.678;2024-02-16T11:43:37;14.80;99.90
24035;DHT22;12242;50.952;4.678;2024-02-16T11:46:15;14.70;99.90
24035;DHT22;12242;50.952;4.678;2024-02-16T11:49:14;14.60;99.90
24035;DHT22;12242;50.952;4.678;2024-02-16T11:55:11;14.70;99.90
24035;DHT22;12242;50.952;4.678;2024-02-16T11:57:44;14.70;99.90
24035;DHT22;12242;50.952;4.678;2024-02-16T12:00:23;14.70;99.90
24035;DHT22;12242;50.952;4.678;2024-02-16T12:03:01;14.80;99.90
24035;DHT22;12242;50.952;4.678;2024-02-16T12:05:33;14.80;99.90
24035;DHT22;12242;50.952;4.678;2024-02-16T12:08:09;15.00;99.90
24035;DHT22;12242;50.952;4.678;2024-02-16T12:10:41;15.10;99.90
24035;DHT22;12242;50.952;4.678;2024-02-16T12:13:45;15.00;99.90
24035;DHT22;12242;50.952;4.678;2024-02-16T12:16:19;15.10;99.90
24035;DHT22;12242;50.952;4.678;2024-02-16T12:18:49;15.00;99.90
24035;DHT22;12242;50.952;4.678;2024-02-16T12:21:31;14.80;99.90
24035;DHT22;12242;50.952;4.678;2024-02-16T12:24:23;14.70;99.90
24035;DHT22;12242;50.952;4.678;2024-02-16T12:27:41;14.60;99.90
24035;DHT22;12242;50.952;4.678;2024-02-16T12:30:14;14.60;99.90
24035;DHT22;12242;50.952;4.678;2024-02-16T12:32:58;14.50;99.90
24035;DHT22;12242;50.952;4.678;2024-02-16T12:35:26;14.30;99.90
24035;DHT22;12242;50.952;4.678;2024-02-16T12:41:49;14.30;99.90
24035;DHT22;12242;50.952;4.678;2024-02-16T12:44:46;14.30;99.90
24035;DHT22;12242;50.952;4.678;2024-02-16T12:51:30;14.80;99.90
24035;DHT22;12242;50.952;4.678;2024-02-16T12:54:03;14.70;99.90
24035;DHT22;12242;50.952;4.678;2024-02-16T12:56:57;14.60;99.90
24035;DHT22;12242;50.952;4.678;2024-02-16T12:59:28;14.80;99.90
24035;DHT22;12242;50.952;4.678;2024-02-16T13:02:05;14.80;99.90
24035;DHT22;12242;50.952;4.678;2024-02-16T13:04:38;15.00;99.90
24035;DHT22;12242;50.952;4.678;2024-02-16T13:07:09;15.00;99.90
24035;DHT22;12242;50.952;4.678;2024-02-16T13:09:43;15.20;99.90
24035;DHT22;12242;50.952;4.678;2024-02-16T13:12:13;15.20;99.90
24035;DHT22;12242;50.952;4.678;2024-02-16T13:14:44;15.30;99.90
24035;DHT22;12242;50.952;4.678;2024-02-16T13:17:11;15.30;99.90
24035;DHT22;12242;50.952;4.678;2024-02-16T13:19:42;15.30;99.90
24035;DHT22;12242;50.952;4.678;2024-02-16T13:22:15;15.20;99.90
24035;DHT22;12242;50.952;4.678;2024-02-16T13:24:45;15.30;99.90
24035;DHT22;12242;50.952;4.678;2024-02-16T13:27:20;15.50;99.90
24035;DHT22;12242;50.952;4.678;2024-02-16T13:29:53;15.60;99.90
24035;DHT22;12242;50.952;4.678;2024-02-16T13:32:22;15.70;99.90
24035;DHT22;12242;50.952;4.678;2024-02-16T13:34:49;15.80;99.90
24035;DHT22;12242;50.952;4.678;2024-02-16T13:37:20;15.80;99.90
24035;DHT22;12242;50.952;4.678;2024-02-16T13:39:48;15.80;99.90
24035;DHT22;12242;50.952;4.678;2024-02-16T13:42:19;15.80;99.90
24035;DHT22;12242;50.952;4.678;2024-02-16T13:45:02;15.80;99.90
24035;DHT22;12242;50.952;4.678;2024-02-16T13:47:36;16.00;99.90
24035;DHT22;12242;50.952;4.678;2024-02-16T13:50:27;16.00;99.90
24035;DHT22;12242;50.952;4.678;2024-02-16T13:52:57;16.10;99.90
24035;DHT22;12242;50.952;4.678;2024-02-16T13:55:43;16.20;99.90
24035;DHT22;12242;50.952;4.678;2024-02-16T14:01:50;16.20;99.90
24035;DHT22;12242;50.952;4.678;2024-02-16T14:04:23;16.70;99.90
24035;DHT22;12242;50.952;4.678;2024-02-16T14:06:58;17.10;99.90
24035;DHT22;12242;50.952;4.678;2024-02-16T14:09:35;17.50;99.90
24035;DHT22;12242;50.952;4.678;2024-02-16T14:12:57;17.60;99.90
24035;DHT22;12242;50.952;4.678;2024-02-16T14:15:44;17.70;99.90
24035;DHT22;12242;50.952;4.678;2024-02-16T14:18:15;17.40;99.90
24035;DHT22;12242;50.952;4.678;2024-02-16T14:21:15;17.40;99.90
24035;DHT22;12242;50.952;4.678;2024-02-16T14:23:45;17.30;99.90
24035;DHT22;12242;50.952;4.678;2024-02-16T14:26:53;17.00;99.90
24035;DHT22;12242;50.952;4.678;2024-02-16T14:30:00;16.80;99.90
24035;DHT22;12242;50.952;4.678;2024-02-16T14:33:20;16.70;99.90
24035;DHT22;12242;50.952;4.678;2024-02-16T14:36:27;16.80;99.90
24035;DHT22;12242;50.952;4.678;2024-02-16T14:39:30;16.80;99.90
24035;DHT22;12242;50.952;4.678;2024-02-16T14:42:15;16.80;99.90
24035;DHT22;12242;50.952;4.678;2024-02-16T14:45:02;16.80;99.90
24035;DHT22;12242;50.952;4.678;2024-02-16T14:48:18;16.60;99.90
24035;DHT22;12242;50.952;4.678;2024-02-16T14:51:00;16.60;99.90
24035;DHT22;12242;50.952;4.678;2024-02-16T14:53:38;16.60;99.90
24035;DHT22;12242;50.952;4.678;2024-02-16T14:56:30;16.70;99.90
24035;DHT22;12242;50.952;4.678;2024-02-16T14:59:13;16.70;99.90
24035;DHT22;12242;50.952;4.678;2024-02-16T15:02:21;16.70;99.90
24035;DHT22;12242;50.952;4.678;2024-02-16T15:05:45;16.60;99.90
24035;DHT22;12242;50.952;4.678;2024-02-16T15:08:28;16.60;99.90
24035;DHT22;12242;50.952;4.678;2024-02-16T15:10:59;16.50;99.90
24035;DHT22;12242;50.952;4.678;2024-02-16T15:13:30;16.60;99.90
24035;DHT22;12242;50.952;4.678;2024-02-16T15:16:05;16.50;99.90
24035;DHT22;12242;50.952;4.678;2024-02-16T15:18:42;16.30;99.90
24035;DHT22;12242;50.952;4.678;2024-02-16T15:21:12;16.40;99.90
24035;DHT22;12242;50.952;4.678;2024-02-16T15:23:42;16.50;99.90
24035;DHT22;12242;50.952;4.678;2024-02-16T15:26:21;16.50;99.90
24035;DHT22;12242;50.952;4.678;2024-02-16T15:28:50;16.50;99.90
24035;DHT22;12242;50.952;4.678;2024-02-16T15:31:18;16.60;99.90
24035;DHT22;12242;50.952;4.678;2024-02-16T15:33:51;16.70;99.90
24035;DHT22;12242;50.952;4.678;2024-02-16T15:36:20;16.70;99.90
24035;DHT22;12242;50.952;4.678;2024-02-16T15:38:48;16.70;99.90
24035;DHT22;12242;50.952;4.678;2024-02-16T15:41:24;16.70;99.90
24035;DHT22;12242;50.952;4.678;2024-02-16T15:43:55;16.60;99.90
24035;DHT22;12242;50.952;4.678;2024-02-16T15:46:25;16.30;99.90
24035;DHT22;12242;50.952;4.678;2024-02-16T15:48:54;15.80;99.90
24035;DHT22;12242;50.952;4.678;2024-02-16T15:51:23;15.60;99.90
24035;DHT22;12242;50.952;4.678;2024-02-16T15:53:50;15.40;99.90
24035;DHT22;12242;50.952;4.678;2024-02-16T15:56:27;15.40;99.90
24035;DHT22;12242;50.952;4.678;2024-02-16T15:58:59;15.40;99.90
24035;DHT22;12242;50.952;4.678;2024-02-16T16:01:30;15.40;99.90
24035;DHT22;12242;50.952;4.678;2024-02-16T16:03:59;15.30;99.90
24035;DHT22;12242;50.952;4.678;2024-02-16T16:06:27;15.60;99.90
24035;DHT22;12242;50.952;4.678;2024-02-16T16:08:55;15.80;99.90
24035;DHT22;12242;50.952;4.678;2024-02-16T16:11:22;15.90;99.90
24035;DHT22;12242;50.952;4.678;2024-02-16T16:13:50;16.10;99.90
24035;DHT22;12242;50.952;4.678;2024-02-16T16:16:21;15.90;99.90
24035;DHT22;12242;50.952;4.678;2024-02-16T16:18:52;15.60;99.90
24035;DHT22;12242;50.952;4.678;2024-02-16T16:21:22;15.40;99.90
24035;DHT22;12242;50.952;4.678;2024-02-16T16:23:50;15.20;99.90